Bostic, North Carolina
Current Conditions -  °F | °C
As of 3:15 PM on Thursday 30 Oct 2014 (Local Time) from KFQD Reporting Station
Clear Clear  
Wind Chill: 64°   Ceiling: Unl
Heat Index: 64°   Visibility: 10mi
Dew Point: 34°   Wind: 5mph
Humidity: 33%   Direction: 240°WSW
Pressure: 29.99"   Gusts: NA
Location:  35.36°N, 81.84°W
Report Text: KFQD 301915Z AUTO 24004KT 10SM CLR 18/01 A2999 RMK AO2 T01800013
Loading
Personal Weather Stations






























Interactive Weather Map
Tropical Storm Tracking
New forecast layout! Learn more

10-Day Weather Forecast

Advertisements
Track Severe Weather on mobile